Latest Weather Observations for Bougainville Reef

IDQ60801

Issued at 7:33 pm EST Monday 25 July 2016 (issued every 30 minutes, with the page automatically refreshed every 10 minutes)

About weather observations | Map of weather stations | Latest weather observations for QLD | Other Formats
Station Details ID: 200840 Name: BOUGAINVILLE REEF Lat: -15.49 Lon: 147.12 Height: 0.0 m
Data from the previous 72 hours. | See also: Recent months for locations in Queensland
Date/Time
EST
Temp
°C
App
Temp
°C
Dew
Point
°C
Rel
Hum
%
Delta-T
°C
Wind Press
QNH
hPa
Press
MSL
hPa
Rain since
9am
mm
Dir  Spd
km/h
Gust
km/h
Spd
kts
Gust
kts
25/07:30pm 25.2 - - - - SE 35 43 19 23 1013.6 - -
25/07:00pm 25.2 - - - - SE 35 43 19 23 1013.3 1013.2 -
25/06:30pm 25.4 - - - - SE 35 41 19 22 1013.1 - -
25/06:00pm 25.3 - - - - SE 35 43 19 23 1012.9 1012.8 -
25/05:30pm 25.1 - - - - SSE 33 39 18 21 1012.7 - -
25/05:00pm 25.1 - - - - SSE 37 37 20 20 1012.7 1012.6 -
25/04:30pm 25.5 - - - - SSE 35 39 19 21 1012.6 - -
25/04:00pm 25.5 - - - - SSE 35 39 19 21 1012.5 1012.5 -
25/03:30pm 25.5 - - - - SE 33 39 18 21 1012.6 - -
25/03:00pm 25.3 - - - - SE 35 39 19 21 1012.8 1012.7 -
25/02:30pm 25.2 - - - - SE 35 41 19 22 1013.0 - -
25/02:00pm 25.5 - - - - SE 35 41 19 22 1013.2 1013.1 -
25/01:30pm 25.4 - - - - SE 37 43 20 23 1013.4 - -
25/01:00pm 25.4 - - - - SE 33 41 18 22 1013.8 1013.8 -
25/12:30pm 25.2 - - - - SE 33 39 18 21 1014.1 - -
25/12:00pm 25.4 - - - - SE 32 39 17 21 1014.5 1014.5 -
25/11:30am 25.1 - - - - SE 32 39 17 21 1014.8 - -
25/11:00am 25.3 - - - - SE 33 39 18 21 1015.2 1015.2 -
25/10:30am 25.1 - - - - SE 35 39 19 21 1015.5 - -
25/10:00am 25.2 - - - - SE 33 39 18 21 1015.6 1015.4 -
25/09:30am 25.2 - - - - SE 33 39 18 21 1015.4 - -
25/09:00am 25.1 - - - - SE 35 39 19 21 1015.4 1015.3 -
25/08:30am 25.2 - - - - ESE 37 41 20 22 1015.2 - -
25/08:00am 25.0 - - - - SE 33 41 18 22 1015.0 1014.8 -
25/07:30am 25.1 - - - - SE 33 37 18 20 1014.7 - -
25/07:00am 24.8 - - - - SE 30 35 16 19 1014.3 1014.1 -
25/06:30am 24.8 - - - - SE 28 32 15 17 1014.1 - -
25/06:00am 24.7 - - - - SE 26 32 14 17 1013.7 1013.6 -
25/05:30am 24.9 - - - - SE 28 32 15 17 1013.5 - -
25/05:00am 24.8 - - - - SE 26 30 14 16 1013.3 1013.1 -
25/04:30am 24.7 - - - - SE 26 28 14 15 1013.2 - -
25/04:00am 24.7 - - - - SE 26 32 14 17 1013.1 1013.0 -
25/03:30am 24.9 - - - - SE 28 32 15 17 1013.1 - -
25/03:00am 25.0 - - - - ESE 28 33 15 18 1013.2 1013.2 -
25/02:30am 24.8 - - - - ESE 30 33 16 18 1013.5 - -
25/02:00am 25.1 - - - - ESE 26 32 14 17 1013.8 1013.7 -
25/01:30am 24.8 - - - - SE 28 32 15 17 1014.0 - -
25/01:00am 24.7 - - - - SE 28 35 15 19 1014.2 1014.1 -
25/12:30am 24.8 - - - - SE 26 32 14 17 1014.3 - -
25/12:00am 24.9 - - - - SE 24 28 13 15 1014.6 1014.5 -
 
Date/Time
EST
Temp
°C
App
Temp
°C
Dew
Point
°C
Rel
Hum
%
Delta-T
°C
Wind Press
QNH
hPa
Press
MSL
hPa
Rain since
9am
mm
Dir  Spd
km/h
Gust
km/h
Spd
kts
Gust
kts
24/11:30pm 24.8 - - - - ESE 26 30 14 16 1014.5 - -
24/11:00pm 24.9 - - - - SE 26 30 14 16 1014.7 1014.7 -
24/10:30pm 25.0 - - - - SE 28 32 15 17 1014.9 - -
24/10:00pm 25.1 - - - - SE 24 30 13 16 1015.0 1014.9 -
24/09:30pm 25.0 - - - - SE 26 30 14 16 1015.0 - -
24/09:00pm 25.1 - - - - SE 22 26 12 14 1014.9 1014.7 -
24/08:30pm 25.0 - - - - SE 24 28 13 15 1014.6 - -
24/08:00pm 25.0 - - - - SE 26 30 14 16 1014.3 1014.1 -
24/07:30pm 25.0 - - - - SE 26 28 14 15 1013.9 - -
24/07:00pm 24.9 - - - - SSE 24 28 13 15 1013.6 1013.4 -
24/06:30pm 25.0 - - - - SE 24 28 13 15 1013.4 - -
24/06:00pm 25.0 - - - - SE 24 28 13 15 1013.0 1012.8 -
24/05:30pm 24.9 - - - - SE 24 28 13 15 1012.8 - -
24/05:00pm 24.9 - - - - SE 26 30 14 16 1012.8 1012.6 -
24/04:30pm 25.0 - - - - SE 26 30 14 16 1012.6 - -
24/04:00pm 24.9 - - - - SSE 26 30 14 16 1012.5 1012.4 -
24/03:30pm 24.8 - - - - SSE 26 32 14 17 1012.4 - -
24/03:00pm 24.8 - - - - SSE 26 30 14 16 1012.5 1012.5 -
24/02:30pm 24.9 - - - - SSE 24 28 13 15 1012.8 - -
24/02:00pm 24.9 - - - - SE 22 26 12 14 1013.0 1013.2 -
24/01:30pm 24.9 - - - - SE 22 26 12 14 1013.6 - -
24/01:00pm 24.9 - - - - SSE 28 28 15 15 1013.9 1013.8 -
24/12:30pm 24.9 - - - - SSE 28 33 15 18 1013.9 - -
24/12:00pm 24.9 - - - - SE 30 35 16 19 1014.1 1014.1 -
24/11:30am 24.9 - - - - SE 28 32 15 17 1014.4 - -
24/11:00am 24.9 - - - - SE 30 35 16 19 1014.5 1014.5 -
24/10:30am 24.8 - - - - SE 28 32 15 17 1014.9 - -
24/10:00am 24.9 - - - - SE 24 30 13 16 1015.0 1015.0 -
24/09:30am 24.8 - - - - SE 24 28 13 15 1015.0 - -
24/09:00am 24.9 - - - - SE 22 26 12 14 1015.0 1014.8 -
24/08:30am 25.0 - - - - SE 22 28 12 15 1014.7 - -
24/08:00am 24.8 - - - - SE 22 28 12 15 1014.4 1014.2 -
24/07:30am 24.9 - - - - SE 24 28 13 15 1014.1 - -
24/07:00am 24.7 - - - - ESE 24 28 13 15 1013.7 1013.5 -
24/06:30am 24.7 - - - - ESE 22 28 12 15 1013.4 - -
24/06:00am 24.6 - - - - SE 22 26 12 14 1013.1 1012.9 -
24/05:30am 24.6 - - - - SE 22 28 12 15 1012.9 - -
24/05:00am 24.6 - - - - SE 22 26 12 14 1012.6 1012.5 -
24/04:30am 24.7 - - - - SE 20 24 11 13 1012.6 - -
24/04:00am 24.8 - - - - SE 20 24 11 13 1012.7 1012.6 -
24/03:30am 24.7 - - - - SE 22 26 12 14 1012.7 - -
24/03:00am 24.6 - - - - SE 22 24 12 13 1012.8 1012.7 -
24/02:30am 24.7 - - - - SE 24 28 13 15 1013.1 - -
24/02:00am 24.9 - - - - SE 24 28 13 15 1013.3 1013.2 -
24/01:30am 24.8 - - - - SE 24 30 13 16 1013.4 - -
24/01:00am 24.8 - - - - ESE 26 30 14 16 1013.5 1013.3 -
24/12:30am 25.0 - - - - ESE 28 35 15 19 1013.6 - -
24/12:00am 25.0 - - - - ESE 26 30 14 16 1013.7 1013.6 -
 
Date/Time
EST
Temp
°C
App
Temp
°C
Dew
Point
°C
Rel
Hum
%
Delta-T
°C
Wind Press
QNH
hPa
Press
MSL
hPa
Rain since
9am
mm
Dir  Spd
km/h
Gust
km/h
Spd
kts
Gust
kts
23/11:30pm 25.0 - - - - ESE 26 30 14 16 1013.7 - -
23/11:00pm 24.9 - - - - ESE 28 33 15 18 1013.7 1013.6 -
23/10:30pm 25.0 - - - - ESE 28 33 15 18 1013.7 - -
23/10:00pm 25.1 - - - - ESE 28 30 15 16 1013.7 1013.6 -
23/09:30pm 25.2 - - - - SE 28 32 15 17 1013.6 - -
23/09:00pm 25.0 - - - - SE 24 28 13 15 1013.6 1013.4 -
23/08:30pm 25.1 - - - - ESE 24 28 13 15 1013.4 - -
23/08:00pm 25.1 - - - - ESE 26 33 14 18 1013.0 1012.9 -
23/07:30pm 25.1 - - - - SE 26 32 14 17 1012.7 - -
23/07:00pm 25.1 - - - - SE 26 30 14 16 1012.4 1012.1 -
23/06:30pm 25.1 - - - - SE 26 30 14 16 1012.0 - -
23/06:00pm 25.3 - - - - SE 26 30 14 16 1012.0 1011.9 -
23/05:30pm 25.2 - - - - SE 26 32 14 17 1011.7 - -
23/05:00pm 25.4 - - - - SE 26 30 14 16 1011.5 1011.4 -
23/04:30pm 25.5 - - - - SE 26 30 14 16 1011.4 - -
23/04:00pm 25.7 - - - - SE 24 28 13 15 1011.3 1011.1 -
23/03:30pm 25.4 - - - - SE 26 30 14 16 1011.2 - -
23/03:00pm 25.6 - - - - SE 24 28 13 15 1011.3 1011.2 -
23/02:30pm 25.4 - - - - SE 26 30 14 16 1011.5 - -
23/02:00pm 25.3 - - - - ESE 28 30 15 16 1011.9 1011.9 -
23/01:30pm 25.6 - - - - ESE 30 33 16 18 1012.3 - -
23/01:00pm 25.4 - - - - ESE 30 35 16 19 1012.7 1012.7 -
23/12:30pm 25.3 - - - - ESE 32 35 17 19 1012.9 - -
23/12:00pm 25.4 - - - - ESE 32 37 17 20 1013.1 1013.1 -
23/11:30am 25.7 - - - - ESE 32 35 17 19 1013.4 - -
23/11:00am 25.5 - - - - ESE 32 35 17 19 1013.6 1013.6 -
23/10:30am 25.6 - - - - ESE 30 35 16 19 1014.0 - -
23/10:00am 25.6 - - - - ESE 32 33 17 18 1014.1 1014.1 -
23/09:30am 25.5 - - - - ESE 28 33 15 18 1014.1 - -
23/09:00am 25.6 - - - - E 30 35 16 19 1014.2 1014.1 -
23/08:30am 25.7 - - - - ESE 30 35 16 19 1014.1 - -
23/08:00am 25.5 - - - - ESE 30 33 16 18 1014.0 1013.8 -
23/07:30am 25.7 - - - - ESE 30 35 16 19 1013.8 - -
23/07:00am 25.0 - - - - SE 32 32 17 17 1013.5 1013.3 -
23/06:30am 24.7 - - - - SE 33 37 18 20 1013.2 - -
23/06:00am 24.9 - - - - ESE 30 32 16 17 1012.7 1012.5 -
23/05:30am 25.3 - - - - E 30 33 16 18 1012.4 - -
23/05:00am 24.9 - - - - ESE 26 30 14 16 1012.3 1012.2 -
23/04:30am 24.9 - - - - E 26 30 14 16 1012.2 - -
23/04:00am 24.9 - - - - SSE 19 26 10 14 1012.0 1011.9 -
23/03:30am 24.5 - - - - SE 19 22 10 12 1012.0 - -
23/03:00am 24.8 - - - - SSE 24 35 13 19 1012.0 1012.1 -
23/02:30am 24.6 - - - - SSE 24 28 13 15 1012.2 - -
23/02:00am 24.6 - - - - SSE 26 32 14 17 1012.6 1012.6 -
23/01:30am 25.0 - - - - SE 26 30 14 16 1012.7 - -
23/01:00am 24.8 - - - - SSE 24 28 13 15 1013.0 1013.0 -
23/12:30am 25.3 - - - - SE 20 24 11 13 1013.2 - -
23/12:00am 25.2 - - - - SSE 24 26 13 14 1013.4 1013.4 -
 
Date/Time
EST
Temp
°C
App
Temp
°C
Dew
Point
°C
Rel
Hum
%
Delta-T
°C
Wind Press
QNH
hPa
Press
MSL
hPa
Rain since
9am
mm
Dir  Spd
km/h
Gust
km/h
Spd
kts
Gust
kts
22/11:30pm 25.0 - - - - SSE 28 32 15 17 1013.7 - -
22/11:00pm 25.1 - - - - SSE 28 33 15 18 1013.7 1013.6 -
22/10:30pm 24.9 - - - - SSE 32 39 17 21 1013.7 - -
22/10:00pm 24.7 - - - - SSE 30 30 16 16 1013.6 1013.5 -
22/09:30pm 24.3 - - - - SSE 33 41 18 22 1013.5 - -
22/09:00pm 25.0 - - - - SSE 30 35 16 19 1013.4 1013.2 -
22/08:30pm 25.2 - - - - SSE 32 35 17 19 1013.2 - -
22/08:00pm 25.2 - - - - SSE 33 35 18 19 1013.0 1012.8 -

Other Formats:

Comma delimited format used in spreadsheet applications
http://www.bom.gov.au/fwo/IDQ60801/IDQ60801.95288.axf

JavaScript Object Notation format (JSON) in row-major order
http://www.bom.gov.au/fwo/IDQ60801/IDQ60801.95288.json